Terminal Aerodrome Forecast
Issued by NWS

Home | Current Version | Previous Version | Text Only | Print | Product List | Glossary On
Versions: 1 2 3 4 5 6 7 8 9 10 11 12 13 14
000
FTUS45 KFGZ 171122
TAFGCN
TAF
KGCN 171122Z 1712/1812 VRB06KT 5SM FU FEW250
     FM171630 23008KT P6SM SCT250
     FM180100 VRB04KT P6SM BKN250=

USA.gov is the U.S. government's official web portal to all federal, state and local government web resources and services.